Kezdőlap
METAR-TAF:

METAR-TAF

Repülőterek :

Pocono Mountains Municipal Airport

Mount Pocono, Pennsylvania, Amerikai Egyesült Államok

földrajzi szélesség: 41-08-20N, földrajzi hosszúság: 075-23-46W, magasság: 584 m

Jelenlegi meteorológiai megfigyelések

A jelentés 1 órával és 5 perccel ezelõtt készült, 20:53 UTC
Délkeleti szél 6 kt
Hőmérséklet 26°C
Páratartalom 70%
Légköri nyomás 1018 hPa
Látótávolság: 16.1 km
Derült ég

METAR: KMPO 092053Z AUTO 13006KT 10SM CLR 26/20 A3005 RMK AO2 SLP160 T02610200 58004

Idő: 17:58 (21:58 UTC)


TAF: hiányzik

Meteorológiai megfigyelések és előrejelzések több, mint 4000 repülőtéren (METAR és TAF jelentéseket).

A térképen piros és sárga pontok jelzik az elérhető meteorológiai állomásokat.

Mozgassa az egeret a pont fölött, hogy megjelenjen az állomás neve.

Azután kattintson az időjárási megfigyelések és előrejelzések megtekintéséhez.

A térkép megváltoztatása: kattintson a fekete keresztel jelölt zöld gombra ráközelítéshez, a vonallal jelölt zöld gombra távolításhoz, vagy a zöld nyilakra a szomszédos térképek eléréséhez.


METAR-TAF: